Time;durP1;ratioP1;P1;durP2;ratioP2;P2;SDS_P1;SDS_P2;PMS_P1;PMS_P2;Temp;Humidity;BMP_temperature;BMP_pressure;BME280_temperature;BME280_humidity;BME280_pressure;Samples;Min_cycle;Max_cycle;Signal;HPM_P1;HPM_P2
2023/03/24 00:01:30;;;;;;;34.00;25.40;;;;;;;12.38;57.24;99292.22;105434;1260;75098;-69
2023/03/24 00:03:59;;;;;;;35.80;25.60;;;;;;;12.38;57.14;99290.05;105646;1258;67708;-68
2023/03/24 00:06:28;;;;;;;32.80;25.30;;;;;;;12.38;57.27;99291.79;105300;1259;72812;-68
2023/03/24 00:09:02;;;;;;;27.30;22.10;;;;;;;12.37;57.01;99287.05;105873;1257;60911;-72
2023/03/24 00:11:34;;;;;;;29.70;22.60;;;;;;;12.37;57.20;99286.58;105273;1257;60495;-67
2023/03/24 00:14:10;;;;;;;27.80;20.90;;;;;;;12.36;57.16;99285.55;105319;1259;74554;-70
2023/03/24 00:16:41;;;;;;;28.50;21.50;;;;;;;12.35;57.04;99281.38;105874;1257;67716;-76
2023/03/24 00:19:12;;;;;;;25.20;21.30;;;;;;;12.33;57.24;99274.05;105992;1255;73314;-72
2023/03/24 00:21:41;;;;;;;25.50;21.10;;;;;;;12.32;57.27;99271.48;105922;1257;60480;-74
2023/03/24 00:24:11;;;;;;;27.20;21.30;;;;;;;12.31;57.09;99269.31;105923;1255;61843;-71
2023/03/24 00:26:42;;;;;;;30.10;22.20;;;;;;;12.29;57.41;99269.69;105867;1260;72964;-81
2023/03/24 00:29:11;;;;;;;27.10;19.90;;;;;;;12.27;57.36;99271.27;105875;1259;66652;-76
2023/03/24 00:31:42;;;;;;;32.40;22.80;;;;;;;12.25;57.40;99272.06;105854;1259;72397;-75
2023/03/24 00:34:11;;;;;;;33.20;23.40;;;;;;;12.23;57.42;99278.16;106026;1257;60492;-74
2023/03/24 00:36:41;;;;;;;27.70;19.50;;;;;;;12.22;57.42;99277.25;105972;1255;60658;-75
2023/03/24 00:39:09;;;;;;;24.80;20.40;;;;;;;12.22;57.31;99279.41;105850;1258;73616;-74
2023/03/24 00:41:43;;;;;;;28.60;19.70;;;;;;;12.21;57.28;99280.38;105933;1256;68811;-70
2023/03/24 00:44:18;;;;;;;23.90;18.40;;;;;;;12.20;57.27;99277.51;106009;1257;72585;-71
2023/03/24 00:46:54;;;;;;;23.10;18.70;;;;;;;12.18;57.34;99267.91;105909;1255;60572;-79
2023/03/24 00:49:41;;;;;;;30.60;20.10;;;;;;;12.15;57.55;99256.05;106043;1257;61729;-72
2023/03/24 00:52:11;;;;;;;28.70;20.10;;;;;;;12.14;57.26;99249.73;105874;1255;74830;-71
2023/03/24 00:54:44;;;;;;;25.10;19.40;;;;;;;12.13;57.54;99247.66;105818;1257;67905;-72
2023/03/24 00:57:20;;;;;;;22.60;18.50;;;;;;;12.12;57.61;99249.10;105891;1267;74073;-70
2023/03/24 00:59:49;;;;;;;25.60;18.80;;;;;;;12.11;57.41;99247.27;106033;1260;61458;-71
2023/03/24 01:02:21;;;;;;;26.60;20.00;;;;;;;12.09;57.58;99245.05;105934;1260;62626;-70
2023/03/24 01:04:58;;;;;;;22.30;18.30;;;;;;;12.08;57.59;99239.20;105893;1259;74396;-71
2023/03/24 01:07:28;;;;;;;24.70;19.20;;;;;;;12.07;57.48;99243.23;105846;1262;68848;-71
2023/03/24 01:09:57;;;;;;;24.00;19.10;;;;;;;12.07;57.59;99247.11;105755;1257;74010;-72
2023/03/24 01:12:27;;;;;;;25.70;19.30;;;;;;;12.06;57.54;99243.77;105792;1260;60607;-72
2023/03/24 01:14:57;;;;;;;21.90;16.70;;;;;;;12.04;57.53;99241.44;105804;1256;60466;-71
2023/03/24 01:17:28;;;;;;;19.10;17.10;;;;;;;12.04;57.52;99238.31;105890;1261;74185;-71
2023/03/24 01:19:56;;;;;;;24.60;18.10;;;;;;;12.03;57.58;99239.20;105851;1259;67916;-73
2023/03/24 01:22:29;;;;;;;28.00;19.70;;;;;;;12.02;57.48;99236.49;105828;1260;72936;-73
2023/03/24 01:24:59;;;;;;;25.90;19.10;;;;;;;12.02;57.59;99241.23;105707;1262;60527;-71
2023/03/24 01:27:28;;;;;;;22.40;18.00;;;;;;;12.00;57.66;99237.40;105930;1267;60431;-72
2023/03/24 01:29:59;;;;;;;23.40;18.00;;;;;;;11.99;57.55;99232.12;105762;1260;74735;-72
2023/03/24 01:32:28;;;;;;;26.70;19.60;;;;;;;11.98;57.85;99237.96;105909;1257;69862;-71
2023/03/24 01:34:56;;;;;;;24.50;18.60;;;;;;;11.98;57.66;99241.73;105805;1257;72588;-71
2023/03/24 01:37:24;;;;;;;25.70;18.20;;;;;;;11.98;57.56;99237.10;105796;1260;60484;-73
2023/03/24 01:39:52;;;;;;;26.10;17.10;;;;;;;11.97;57.66;99238.87;105897;1259;61480;-72
2023/03/24 01:42:22;;;;;;;23.20;17.40;;;;;;;11.96;57.47;99236.44;105819;1255;74465;-71
2023/03/24 01:44:53;;;;;;;22.10;17.70;;;;;;;11.95;57.60;99232.11;105914;1258;68771;-71
2023/03/24 01:47:21;;;;;;;22.80;17.70;;;;;;;11.94;57.63;99230.89;105825;1259;74311;-71
2023/03/24 01:49:54;;;;;;;26.30;17.80;;;;;;;11.93;57.53;99228.58;105890;1259;60874;-71
2023/03/24 01:52:34;;;;;;;26.60;19.00;;;;;;;11.93;57.57;99227.71;105926;1260;60459;-70
2023/03/24 01:55:09;;;;;;;21.80;18.30;;;;;;;11.92;57.55;99225.77;105443;1260;74837;-71
2023/03/24 01:57:41;;;;;;;23.70;17.80;;;;;;;11.91;57.60;99231.31;105846;1261;67560;-70
2023/03/24 02:00:12;;;;;;;19.30;17.00;;;;;;;11.90;57.66;99224.96;105755;1260;73609;-69
2023/03/24 02:02:43;;;;;;;26.20;17.80;;;;;;;11.89;57.78;99226.42;105650;1256;61250;-71
2023/03/24 02:05:13;;;;;;;22.20;17.40;;;;;;;11.88;57.72;99224.75;105858;1263;61606;-71
2023/03/24 02:07:54;;;;;;;21.90;16.50;;;;;;;11.87;57.78;99224.64;105939;1259;74761;-71
2023/03/24 02:10:23;;;;;;;25.70;16.80;;;;;;;11.87;57.88;99237.46;105764;1259;66822;-72
2023/03/24 02:12:51;;;;;;;22.50;17.30;;;;;;;11.86;57.78;99241.08;105879;1255;74410;-72
2023/03/24 02:15:20;;;;;;;19.80;17.10;;;;;;;11.87;57.61;99244.46;105784;1259;60425;-70
2023/03/24 02:18:24;;;;;;;20.20;16.80;;;;;;;11.88;57.79;99240.33;105138;1260;62053;-69
2023/03/24 02:21:18;;;;;;;22.90;16.30;;;;;;;11.89;57.83;99241.95;105140;1258;73572;-72
2023/03/24 02:24:13;;;;;;;26.20;20.10;;;;;;;11.89;57.73;99246.05;105962;1258;68106;-73
2023/03/24 02:27:06;;;;;;;22.80;19.20;;;;;;;11.89;57.85;99249.23;105828;1260;74846;-74
2023/03/24 02:29:43;;;;;;;21.70;16.70;;;;;;;11.89;57.88;99245.66;105856;1254;60805;-71
2023/03/24 02:32:32;;;;;;;21.80;16.60;;;;;;;11.89;57.74;99245.66;105825;1257;60527;-72
2023/03/24 02:35:36;;;;;;;22.80;17.10;;;;;;;11.89;57.82;99246.80;105819;1257;74072;-74
2023/03/24 02:38:17;;;;;;;21.40;17.80;;;;;;;11.88;57.90;99238.98;105766;1259;68470;-71
2023/03/24 02:41:01;;;;;;;18.10;16.00;;;;;;;11.88;57.99;99241.89;105814;1260;72625;-71
2023/03/24 02:43:49;;;;;;;27.10;17.90;;;;;;;11.90;57.98;99240.80;102672;1291;600259;-71
2023/03/24 02:46:24;;;;;;;23.10;17.30;;;;;;;11.88;57.96;99241.13;104966;1266;60509;-72
2023/03/24 02:49:01;;;;;;;27.50;18.20;;;;;;;11.88;58.09;99243.02;105238;1267;61396;-71
2023/03/24 02:51:38;;;;;;;26.20;17.90;;;;;;;11.87;58.26;99245.60;105011;1270;73119;-71
2023/03/24 02:54:35;;;;;;;22.90;18.00;;;;;;;11.87;57.98;99248.52;105010;1266;67204;-73
2023/03/24 02:57:06;;;;;;;22.00;17.50;;;;;;;11.87;58.18;99257.30;105005;1263;460110;-72
2023/03/24 03:00:01;;;;;;;18.80;16.10;;;;;;;11.87;58.19;99259.24;105303;1267;61025;-71
2023/03/24 03:03:06;;;;;;;19.10;15.80;;;;;;;11.88;58.07;99266.24;105127;1263;59795;-72
2023/03/24 03:05:40;;;;;;;20.60;15.90;;;;;;;11.90;58.09;99264.20;105121;1263;74058;-71
2023/03/24 03:08:13;;;;;;;22.30;15.30;;;;;;;11.91;58.07;99257.84;105216;1266;69467;-72
2023/03/24 03:10:43;;;;;;;22.20;18.20;;;;;;;11.93;58.21;99257.41;105106;1263;72824;-72
2023/03/24 03:13:18;;;;;;;19.80;15.60;;;;;;;11.95;57.99;99260.90;105337;1265;60949;-72
2023/03/24 03:15:48;;;;;;;27.70;17.90;;;;;;;11.97;57.90;99264.90;105288;1260;60252;-71
2023/03/24 03:18:24;;;;;;;21.40;15.90;;;;;;;11.98;58.10;99266.25;105213;1265;73604;-71
2023/03/24 03:21:03;;;;;;;22.90;15.10;;;;;;;12.00;57.88;99259.51;105332;1261;68258;-72
2023/03/24 03:23:42;;;;;;;23.10;14.10;;;;;;;12.03;57.99;99257.73;105345;1263;71236;-71
2023/03/24 03:26:15;;;;;;;21.70;14.40;;;;;;;12.05;58.15;99259.34;105310;1260;61283;-72
2023/03/24 03:28:49;;;;;;;15.60;13.90;;;;;;;12.07;57.92;99260.80;105453;1260;60898;-72
2023/03/24 03:31:30;;;;;;;22.80;16.80;;;;;;;12.09;57.91;99263.29;105459;1265;74564;-72
2023/03/24 03:34:06;;;;;;;19.00;14.90;;;;;;;12.11;58.02;99263.08;105434;1266;68754;-72
2023/03/24 03:36:40;;;;;;;16.90;14.00;;;;;;;12.13;58.22;99263.06;105785;1257;72272;-72
2023/03/24 03:39:18;;;;;;;19.40;14.50;;;;;;;12.15;58.26;99264.30;105758;1260;61360;-72
2023/03/24 03:41:46;;;;;;;19.20;14.90;;;;;;;12.18;58.40;99269.70;105857;1259;59971;-72
